Главная страница
METAR-TAF:

METAR-TAF

Аэропорты :

Международный аэропорт имени Гарри Мванги Нкумбулы

Ливингстон, Замбия

широта: 17-49-18S, долгота: 025-49-22E, высота над уровнем моря: 991 м

METAR: отсутствует

Время: 14:29 (12:29 UTC)

Прогноз

Эта сводка был подготовлена 2 часа и 29 минут назад, в 10:00 UTC
Прогноз действительный с 03-го 12 UTC до 04-го 18 UTC
Ветер 5 Узел от восточный
Видимость 10 км и более
Рассеянная облачность на высоте 4000 фута
Вероятность 30% :
временами
С 03-го 13 UTC до 03-го 15 UTC
Видимость: 8000 м
ливневые дожди
изменения
С 03-го 17 UTC до 03-го 19 UTC
Ветер 5 Узел от юго-восточный
Видимость 10 км и более
Нет облачности ниже 1500 м, и нет кучево-дождевой облачности
изменения
С 04-го 04 UTC до 04-го 06 UTC
Видимость 10 км и более
Отдельные облака на высоте 1500 фута

TAF: FLHN 031000Z 0312/0418 10005KT 9999 BKN040 PROB30 TEMPO 0313/0315 8000 SHRA BECMG 0317/0319 13005KT CAVOK BECMG 0404/0406 9999 SCT015

Метеонаблюдения и прогнозы для более 4000 аэропортов (сводки METAR и TAF).

Имеющиеся станции представлены на карте желтыми и красными точками.

Чтобы увидеть название станции, наведите на нее мышь.

Затем щелкните, чтобы увидеть метеонаблюдения и метеопрогнозы.

Управление картой: чтобы увеличить масштаб, щелкните зеленые кнопки с черным крестиком; чтобы уменьшить масштаб, щелкните зеленую кнопку с тире; для просмотра соседних карт щелкайте зеленые стрелки.


METAR-TAF: